Time;durP1;ratioP1;P1;durP2;ratioP2;P2;SDS_P1;SDS_P2;PMS_P1;PMS_P2;Temp;Humidity;BMP_temperature;BMP_pressure;BME280_temperature;BME280_humidity;BME280_pressure;Samples;Min_cycle;Max_cycle;Signal;HPM_P1;HPM_P2
2023/04/24 00:01:07;;;;;;;13.98;3.30;;;13.40;91.10;;;;;;7385715;19;20075;-72
2023/04/24 00:03:35;;;;;;;7.45;2.97;;;13.20;91.10;;;;;;7408123;19;20015;-72
2023/04/24 00:06:06;;;;;;;12.07;4.18;;;13.20;90.90;;;;;;7384543;19;20024;-72
2023/04/24 00:08:35;;;;;;;8.38;3.03;;;13.20;91.00;;;;;;7384084;19;20002;-72
2023/04/24 00:11:07;;;;;;;11.05;3.40;;;13.10;90.80;;;;;;7384313;19;20021;-73
2023/04/24 00:13:35;;;;;;;8.75;2.88;;;13.00;91.00;;;;;;7382269;19;20011;-73
2023/04/24 00:16:05;;;;;;;9.02;2.83;;;13.00;91.10;;;;;;7382177;19;20010;-73
2023/04/24 00:18:33;;;;;;;11.65;3.05;;;13.10;91.10;;;;;;7408214;19;20006;-73
2023/04/24 00:21:02;;;;;;;14.90;3.63;;;13.30;91.20;;;;;;7384157;19;20066;-73
2023/04/24 00:23:31;;;;;;;9.32;2.85;;;13.30;91.00;;;;;;7385241;19;20099;-72
2023/04/24 00:26:00;;;;;;;12.23;3.00;;;13.30;90.60;;;;;;7384013;19;20307;-72
2023/04/24 00:28:31;;;;;;;12.57;2.65;;;13.20;90.60;;;;;;7383851;19;20068;-72
2023/04/24 00:30:59;;;;;;;22.45;4.60;;;13.20;90.60;;;;;;7389847;19;20014;-72
2023/04/24 00:33:28;;;;;;;14.15;2.70;;;13.10;90.60;;;;;;7401886;19;20361;-72
2023/04/24 00:35:57;;;;;;;10.25;2.85;;;13.00;91.00;;;;;;7380820;19;20028;-72
2023/04/24 00:38:26;;;;;;;12.55;3.00;;;12.90;90.90;;;;;;7382369;19;20010;-71
2023/04/24 00:40:54;;;;;;;9.68;3.22;;;12.90;91.20;;;;;;7382964;19;20019;-71
2023/04/24 00:43:23;;;;;;;11.77;3.17;;;13.00;91.40;;;;;;7383228;19;20007;-73
2023/04/24 00:45:54;;;;;;;17.73;3.40;;;13.10;91.30;;;;;;7404333;19;20296;-72
2023/04/24 00:48:23;;;;;;;14.65;3.20;;;13.00;91.30;;;;;;7382566;19;20011;-72
2023/04/24 00:50:52;;;;;;;12.02;3.20;;;13.00;91.00;;;;;;7382303;19;20006;-72
2023/04/24 00:53:21;;;;;;;12.10;3.25;;;13.00;91.00;;;;;;7381605;19;20011;-72
2023/04/24 00:55:50;;;;;;;14.77;3.28;;;12.90;90.90;;;;;;7381635;19;20017;-72
2023/04/24 00:58:19;;;;;;;12.52;3.45;;;13.00;91.00;;;;;;7382325;19;20019;-72
2023/04/24 01:00:48;;;;;;;9.88;3.05;;;13.00;91.20;;;;;;7404297;19;20017;-71
2023/04/24 01:03:20;;;;;;;19.33;3.03;;;12.90;90.90;;;;;;7381636;19;20031;-72
2023/04/24 01:05:50;;;;;;;15.25;3.78;;;12.90;90.80;;;;;;7381720;19;20015;-71
2023/04/24 01:08:18;;;;;;;16.42;3.50;;;13.00;91.00;;;;;;7382204;19;20070;-71
2023/04/24 01:10:48;;;;;;;10.82;3.05;;;13.00;90.90;;;;;;7383547;19;20006;-71
2023/04/24 01:13:17;;;;;;;11.93;3.50;;;12.90;90.70;;;;;;7383907;19;20079;-72
2023/04/24 01:15:46;;;;;;;6.93;3.03;;;12.90;90.80;;;;;;7406791;19;20019;-71
2023/04/24 01:18:15;;;;;;;12.45;3.30;;;12.70;90.80;;;;;;7382014;19;20074;-72
2023/04/24 01:20:48;;;;;;;12.25;3.47;;;12.70;91.20;;;;;;7381197;19;20378;-72
2023/04/24 01:23:20;;;;;;;7.10;2.92;;;12.50;91.20;;;;;;7381951;19;20095;-72
2023/04/24 01:25:49;;;;;;;16.67;3.20;;;12.70;91.30;;;;;;7380561;19;20079;-71
2023/04/24 01:28:18;;;;;;;9.02;2.92;;;12.70;91.50;;;;;;7382963;19;20010;-71
2023/04/24 01:30:47;;;;;;;13.68;2.95;;;12.70;91.00;;;;;;7404180;19;20006;-71
2023/04/24 01:33:16;;;;;;;13.85;3.13;;;12.70;91.00;;;;;;7382377;19;20106;-71
2023/04/24 01:35:45;;;;;;;13.82;2.50;;;12.80;91.10;;;;;;7380095;19;20512;-71
2023/04/24 01:38:14;;;;;;;9.93;2.65;;;12.80;91.30;;;;;;7380765;19;20020;-71
2023/04/24 01:40:45;;;;;;;10.77;2.70;;;12.80;91.00;;;;;;7379532;19;20094;-71
2023/04/24 01:43:15;;;;;;;14.85;3.70;;;12.70;91.00;;;;;;7381067;19;20278;-71
2023/04/24 01:45:44;;;;;;;9.27;2.80;;;12.60;91.40;;;;;;7400559;19;20014;-71
2023/04/24 01:48:13;;;;;;;9.27;3.00;;;12.70;91.70;;;;;;7380313;19;20074;-71
2023/04/24 01:50:42;;;;;;;15.90;3.17;;;12.80;91.40;;;;;;7380530;19;20256;-72
2023/04/24 01:53:11;;;;;;;9.27;2.58;;;13.00;91.40;;;;;;7380877;19;20010;-72
2023/04/24 01:55:40;;;;;;;10.02;3.00;;;13.00;91.20;;;;;;7379338;19;20011;-71
2023/04/24 01:58:11;;;;;;;15.25;3.20;;;13.10;91.20;;;;;;7380332;19;20087;-71
2023/04/24 02:00:40;;;;;;;;;;;13.10;91.00;;;;;;7400512;19;20035;-71
2023/04/24 02:03:08;;;;;;;11.85;3.00;;;13.20;91.00;;;;;;7379942;19;19910;-71
2023/04/24 02:05:37;;;;;;;12.63;2.90;;;13.20;90.80;;;;;;7380309;19;20378;-71
2023/04/24 02:08:06;;;;;;;6.75;2.47;;;13.00;90.70;;;;;;7379416;19;20003;-72
2023/04/24 02:10:34;;;;;;;8.63;2.65;;;13.00;91.00;;;;;;7380186;19;20011;-71
2023/04/24 02:13:04;;;;;;;6.97;2.42;;;12.90;91.10;;;;;;7379821;19;20215;-71
2023/04/24 02:15:35;;;;;;;12.48;2.97;;;12.90;91.30;;;;;;7399715;19;20013;-71
2023/04/24 02:18:04;;;;;;;10.30;2.50;;;12.80;91.40;;;;;;7379493;19;20002;-71
2023/04/24 02:20:33;;;;;;;6.72;2.85;;;13.00;91.50;;;;;;7380031;19;20019;-71
2023/04/24 02:23:02;;;;;;;8.25;2.45;;;12.90;91.40;;;;;;7381000;19;20361;-72
2023/04/24 02:25:31;;;;;;;13.05;3.00;;;12.90;91.30;;;;;;7380636;19;20569;-71
2023/04/24 02:27:59;;;;;;;11.65;2.65;;;13.00;91.30;;;;;;7394841;19;20010;-71
2023/04/24 02:30:28;;;;;;;9.60;2.63;;;13.00;91.10;;;;;;7401100;19;20357;-71
2023/04/24 02:32:59;;;;;;;7.63;2.80;;;13.10;91.10;;;;;;7379132;19;20066;-72
2023/04/24 02:35:28;;;;;;;9.00;2.65;;;13.00;91.20;;;;;;7378296;19;20009;-72
2023/04/24 02:37:57;;;;;;;13.50;3.10;;;13.00;91.20;;;;;;7379953;19;20010;-72
2023/04/24 02:40:25;;;;;;;10.73;2.33;;;12.80;91.30;;;;;;7379719;19;20015;-72
2023/04/24 02:42:54;;;;;;;6.57;2.60;;;12.80;91.20;;;;;;7401302;19;20007;-72
2023/04/24 02:45:23;;;;;;;15.45;3.10;;;12.90;91.50;;;;;;7380077;19;20006;-72
2023/04/24 02:47:52;;;;;;;9.85;2.80;;;12.60;91.60;;;;;;7378962;19;20068;-72
2023/04/24 02:50:23;;;;;;;7.28;2.67;;;12.60;91.80;;;;;;7376856;19;20011;-71
2023/04/24 02:52:52;;;;;;;11.70;2.42;;;12.60;92.00;;;;;;7378839;19;20024;-71
2023/04/24 02:55:21;;;;;;;17.38;2.80;;;12.70;91.60;;;;;;7377741;19;20058;-71
2023/04/24 02:57:49;;;;;;;17.00;3.08;;;12.70;91.50;;;;;;7400315;19;20015;-71
2023/04/24 03:00:18;;;;;;;12.18;3.42;;;12.80;91.50;;;;;;7377829;19;20007;-71
2023/04/24 03:02:47;;;;;;;16.63;2.55;;;12.90;91.50;;;;;;7378429;19;20064;-71
2023/04/24 03:05:16;;;;;;;7.72;2.42;;;12.70;91.50;;;;;;7377588;19;20078;-71
2023/04/24 03:07:47;;;;;;;11.50;3.13;;;12.80;91.50;;;;;;7377417;19;20385;-72
2023/04/24 03:10:16;;;;;;;13.00;2.50;;;12.60;91.40;;;;;;7378699;19;20021;-72
2023/04/24 03:12:45;;;;;;;14.35;2.92;;;12.70;91.50;;;;;;7399638;19;20006;-71
2023/04/24 03:15:14;;;;;;;8.88;2.45;;;12.60;91.50;;;;;;7377389;19;20011;-71
2023/04/24 03:17:42;;;;;;;8.98;2.70;;;12.70;91.50;;;;;;7377254;19;20074;-71
2023/04/24 03:20:12;;;;;;;10.48;2.95;;;12.80;91.30;;;;;;7378376;19;20078;-71
2023/04/24 03:22:41;;;;;;;9.07;2.72;;;12.70;91.60;;;;;;7376822;19;20006;-71
2023/04/24 03:25:12;;;;;;;16.77;3.08;;;12.70;91.60;;;;;;7376373;19;20015;-71
2023/04/24 03:27:41;;;;;;;10.50;2.85;;;12.70;91.30;;;;;;7399097;19;20378;-71
2023/04/24 03:30:11;;;;;;;9.50;2.80;;;12.70;91.30;;;;;;7377695;19;20006;-72
2023/04/24 03:32:40;;;;;;;12.02;3.55;;;12.70;91.30;;;;;;7378846;19;20028;-72
2023/04/24 03:35:09;;;;;;;11.88;3.03;;;12.50;91.70;;;;;;7379203;19;20740;-72
2023/04/24 03:37:38;;;;;;;12.50;2.90;;;12.60;91.60;;;;;;7378931;19;20326;-72
2023/04/24 03:40:08;;;;;;;12.02;2.85;;;12.50;91.50;;;;;;7375509;19;20374;-72
2023/04/24 03:42:40;;;;;;;17.88;3.00;;;12.50;91.70;;;;;;7397017;19;20006;-72
2023/04/24 03:45:10;;;;;;;9.90;3.13;;;12.40;91.60;;;;;;7376857;19;20002;-72
2023/04/24 03:47:39;;;;;;;12.13;2.75;;;12.50;91.50;;;;;;7377138;19;20006;-71
2023/04/24 03:50:08;;;;;;;13.65;3.10;;;12.40;91.80;;;;;;7380966;19;20034;-72
2023/04/24 03:52:37;;;;;;;14.85;3.00;;;12.30;92.00;;;;;;7377432;19;20011;-72
2023/04/24 03:55:07;;;;;;;7.25;3.00;;;12.20;91.90;;;;;;7378108;19;20010;-71
2023/04/24 03:57:35;;;;;;;16.05;3.20;;;12.30;92.00;;;;;;7399098;19;20011;-71
2023/04/24 04:00:08;;;;;;;17.83;3.10;;;12.30;91.90;;;;;;7376484;19;20003;-72
2023/04/24 04:02:37;;;;;;;9.40;3.00;;;12.40;91.90;;;;;;7380860;19;20289;-72
2023/04/24 04:05:06;;;;;;;14.13;3.00;;;12.50;91.70;;;;;;7385496;19;20075;-71
2023/04/24 04:07:35;;;;;;;10.68;3.40;;;12.60;91.70;;;;;;7383142;19;20020;-71
2023/04/24 04:10:03;;;;;;;12.30;3.33;;;12.70;91.60;;;;;;7384429;19;20014;-71
2023/04/24 04:12:32;;;;;;;12.30;3.25;;;12.70;91.60;;;;;;7402693;19;20078;-71
2023/04/24 04:15:01;;;;;;;11.43;3.63;;;12.60;91.40;;;;;;7383989;19;20026;-72
2023/04/24 04:17:32;;;;;;;14.98;3.60;;;12.50;91.50;;;;;;7383337;19;20007;-71
2023/04/24 04:20:01;;;;;;;8.90;3.60;;;12.60;91.50;;;;;;7384573;19;20322;-71
2023/04/24 04:22:30;;;;;;;8.70;3.22;;;12.50;91.60;;;;;;7383127;19;20025;-72
2023/04/24 04:24:59;;;;;;;10.40;2.90;;;12.50;91.60;;;;;;7402396;19;20260;-72
2023/04/24 04:27:28;;;;;;;12.07;3.58;;;12.50;91.60;;;;;;7383027;19;20376;-72
2023/04/24 04:29:57;;;;;;;13.80;3.10;;;12.50;91.90;;;;;;7382139;19;20039;-72
2023/04/24 04:32:25;;;;;;;13.07;3.50;;;12.50;91.70;;;;;;7383154;19;20019;-71
2023/04/24 04:34:57;;;;;;;12.90;3.88;;;12.50;91.70;;;;;;7383401;19;20009;-72
2023/04/24 04:37:25;;;;;;;10.40;2.95;;;12.50;91.70;;;;;;7382453;19;20006;-72
2023/04/24 04:39:55;;;;;;;9.13;3.28;;;12.50;91.70;;;;;;7402289;19;20011;-72
2023/04/24 04:42:23;;;;;;;12.52;3.88;;;12.30;91.60;;;;;;7382396;19;20677;-72
2023/04/24 04:44:52;;;;;;;10.75;3.42;;;12.30;91.80;;;;;;7382802;19;20007;-71
2023/04/24 04:47:24;;;;;;;11.60;3.58;;;12.40;92.10;;;;;;7381914;19;20007;-71
2023/04/24 04:49:53;;;;;;;;;;;12.40;92.10;;;;;;7383809;19;20022;-71
2023/04/24 04:52:26;;;;;;;15.75;3.70;;;12.50;92.00;;;;;;7382827;19;20053;-71
2023/04/24 04:54:55;;;;;;;11.93;4.38;;;12.50;91.80;;;;;;7404012;19;20070;-71
2023/04/24 04:57:23;;;;;;;13.70;4.22;;;12.60;91.90;;;;;;7383094;19;20011;-72
2023/04/24 04:59:52;;;;;;;6.85;3.47;;;12.60;91.70;;;;;;7382278;19;20358;-73
2023/04/24 05:02:21;;;;;;;17.33;3.67;;;12.40;91.70;;;;;;7381426;19;20404;-72
2023/04/24 05:04:49;;;;;;;13.25;3.88;;;12.50;91.80;;;;;;7381102;19;20015;-71
2023/04/24 05:07:18;;;;;;;10.05;3.75;;;12.50;92.00;;;;;;7382217;19;20015;-71
2023/04/24 05:09:51;;;;;;;12.55;4.25;;;12.60;92.10;;;;;;7403530;19;20291;-71
2023/04/24 05:12:19;;;;;;;10.95;3.95;;;12.50;92.00;;;;;;7381510;19;20023;-71
2023/04/24 05:14:48;;;;;;;17.95;3.80;;;12.70;92.00;;;;;;7378986;19;20059;-71
2023/04/24 05:17:17;;;;;;;16.70;4.35;;;12.70;91.90;;;;;;7380833;19;20020;-71
2023/04/24 05:19:46;;;;;;;11.27;4.20;;;12.60;91.80;;;;;;7381725;19;20091;-72
2023/04/24 05:22:14;;;;;;;13.95;4.38;;;12.60;91.90;;;;;;7380400;19;20015;-72
2023/04/24 05:24:43;;;;;;;11.40;4.63;;;12.60;92.10;;;;;;7403284;19;20011;-71
2023/04/24 05:27:14;;;;;;;12.77;4.65;;;12.40;92.20;;;;;;7380993;19;20006;-71
2023/04/24 05:29:43;;;;;;;13.38;4.78;;;12.50;92.80;;;;;;7380521;19;20299;-71
2023/04/24 05:32:12;;;;;;;18.63;5.18;;;12.40;92.60;;;;;;7380067;19;20253;-72
2023/04/24 05:34:41;;;;;;;13.77;4.25;;;12.50;92.60;;;;;;7381272;19;20083;-72
2023/04/24 05:37:09;;;;;;;16.30;4.65;;;12.50;92.40;;;;;;7380153;19;20006;-71
2023/04/24 05:39:39;;;;;;;14.60;4.65;;;12.60;92.60;;;;;;7402532;19;20234;-71
2023/04/24 05:42:08;;;;;;;15.35;4.57;;;12.60;92.50;;;;;;7381313;19;20010;-72
2023/04/24 05:44:39;;;;;;;11.10;5.45;;;12.70;92.60;;;;;;7381195;19;20354;-72
2023/04/24 05:47:08;;;;;;;15.73;4.80;;;12.60;92.50;;;;;;7382105;19;20066;-72
2023/04/24 05:49:36;;;;;;;13.80;5.13;;;12.60;92.60;;;;;;7380774;19;20433;-72
2023/04/24 05:52:08;;;;;;;15.70;5.20;;;12.70;92.60;;;;;;7381177;19;20014;-72
2023/04/24 05:54:37;;;;;;;11.20;5.32;;;12.80;92.60;;;;;;7402254;19;20015;-72
2023/04/24 05:57:07;;;;;;;21.55;5.20;;;12.90;92.40;;;;;;7379208;19;20013;-72
2023/04/24 05:59:39;;;;;;;8.75;4.70;;;13.00;92.30;;;;;;7380026;19;20260;-72
2023/04/24 06:02:08;;;;;;;11.75;4.72;;;13.10;92.50;;;;;;7379970;19;20007;-72
2023/04/24 06:04:37;;;;;;;12.85;5.10;;;13.00;92.30;;;;;;7380980;19;20014;-72
2023/04/24 06:07:06;;;;;;;17.55;4.95;;;13.00;92.20;;;;;;7380500;19;20075;-72
2023/04/24 06:09:35;;;;;;;14.95;4.93;;;13.00;92.20;;;;;;7401661;19;20002;-72
2023/04/24 06:12:04;;;;;;;13.20;5.25;;;13.10;92.30;;;;;;7379921;19;20002;-72
2023/04/24 06:14:32;;;;;;;16.42;5.68;;;13.20;92.30;;;;;;7380088;19;20003;-72
2023/04/24 06:17:04;;;;;;;18.00;5.28;;;13.00;92.30;;;;;;7380300;19;20416;-72
2023/04/24 06:19:32;;;;;;;14.00;5.90;;;13.00;92.50;;;;;;7378697;19;20058;-72
2023/04/24 06:22:01;;;;;;;22.67;6.88;;;13.00;92.40;;;;;;7400588;19;20078;-72
2023/04/24 06:24:30;;;;;;;17.85;5.85;;;13.10;92.40;;;;;;7379162;19;20011;-72
2023/04/24 06:27:00;;;;;;;17.80;5.97;;;13.30;92.40;;;;;;7379123;19;20252;-71
2023/04/24 06:29:28;;;;;;;10.07;5.32;;;13.40;92.50;;;;;;7380042;19;19999;-71
2023/04/24 06:31:57;;;;;;;16.10;6.18;;;13.40;92.20;;;;;;7379323;19;20070;-72
2023/04/24 06:34:30;;;;;;;20.80;5.90;;;13.40;92.10;;;;;;7379560;19;20071;-72
2023/04/24 06:36:59;;;;;;;23.55;6.32;;;13.50;92.20;;;;;;7400556;19;20266;-72
2023/04/24 06:39:28;;;;;;;28.15;6.75;;;13.50;92.00;;;;;;7379138;19;20027;-71
2023/04/24 06:41:56;;;;;;;12.52;5.95;;;13.30;92.20;;;;;;7378758;19;20360;-72
2023/04/24 06:44:25;;;;;;;17.40;6.18;;;13.40;92.30;;;;;;7378225;19;20027;-72
2023/04/24 06:46:54;;;;;;;18.38;6.20;;;13.50;92.20;;;;;;7379088;19;20106;-72
2023/04/24 06:49:22;;;;;;;19.17;6.68;;;13.60;92.20;;;;;;7380584;19;20019;-70
2023/04/24 06:51:53;;;;;;;13.60;6.75;;;13.60;92.00;;;;;;7400531;19;20082;-71
2023/04/24 06:54:22;;;;;;;17.38;6.50;;;13.60;91.90;;;;;;7378266;19;20016;-72
2023/04/24 06:56:52;;;;;;;19.25;7.20;;;13.50;91.80;;;;;;7377620;19;20066;-71
2023/04/24 06:59:20;;;;;;;15.95;6.22;;;13.30;92.10;;;;;;7378880;19;20269;-71
2023/04/24 07:01:49;;;;;;;16.75;7.57;;;13.50;92.30;;;;;;7379440;19;20007;-72
2023/04/24 07:04:18;;;;;;;19.08;7.93;;;13.20;92.40;;;;;;7377170;19;20373;-74
2023/04/24 07:06:47;;;;;;;21.05;9.27;;;13.10;93.40;;;;;;7400354;19;20015;-73
2023/04/24 07:09:18;;;;;;;35.25;8.02;;;13.30;94.30;;;;;;7378665;19;20011;-73
2023/04/24 07:11:48;;;;;;;22.40;6.93;;;13.30;93.60;;;;;;7378845;19;20002;-73
2023/04/24 07:14:17;;;;;;;23.75;8.52;;;13.20;93.30;;;;;;7378497;19;20007;-75
2023/04/24 07:16:45;;;;;;;17.63;7.63;;;13.30;93.20;;;;;;7378282;19;20282;-73
2023/04/24 07:19:14;;;;;;;32.90;9.18;;;13.30;92.90;;;;;;7376860;19;20063;-73
2023/04/24 07:21:43;;;;;;;436.70;21.23;;;13.40;93.00;;;;;;7397592;19;20028;-73
2023/04/24 07:24:12;;;;;;;22.60;7.75;;;13.30;92.80;;;;;;7377601;19;20028;-73
2023/04/24 07:26:44;;;;;;;15.13;7.68;;;13.20;92.90;;;;;;7377542;19;20010;-74
2023/04/24 07:29:12;;;;;;;19.58;7.57;;;13.20;92.90;;;;;;7378489;19;20023;-73
2023/04/24 07:31:41;;;;;;;23.17;8.10;;;13.50;92.70;;;;;;7376573;19;20003;-73
2023/04/24 07:34:10;;;;;;;20.10;8.68;;;13.40;92.60;;;;;;7377611;19;20496;-74
2023/04/24 07:36:39;;;;;;;18.70;8.35;;;13.60;92.60;;;;;;7400081;19;20007;-74
2023/04/24 07:39:08;;;;;;;21.52;8.27;;;13.50;92.00;;;;;;7384463;19;20006;-73
2023/04/24 07:41:36;;;;;;;24.13;8.93;;;13.30;92.30;;;;;;7385168;19;20002;-73
2023/04/24 07:44:08;;;;;;;23.20;9.30;;;13.50;92.30;;;;;;7384214;19;20003;-73
2023/04/24 07:46:36;;;;;;;20.05;9.15;;;13.20;92.60;;;;;;7388938;19;20002;-74
2023/04/24 07:49:06;;;;;;;21.88;8.75;;;13.20;92.70;;;;;;7384723;19;20425;-74
2023/04/24 07:51:38;;;;;;;21.92;8.57;;;13.40;92.70;;;;;;7403615;19;20003;-73
2023/04/24 07:54:07;;;;;;;25.38;8.93;;;13.50;92.50;;;;;;7384226;19;20007;-74
2023/04/24 07:56:38;;;;;;;21.55;9.32;;;13.20;92.70;;;;;;7384369;19;20569;-73
2023/04/24 07:59:09;;;;;;;18.30;9.70;;;13.40;92.60;;;;;;7384606;19;20006;-73
2023/04/24 08:01:38;;;;;;;28.77;8.75;;;13.60;92.60;;;;;;7384768;19;20283;-75
2023/04/24 08:04:07;;;;;;;19.33;9.05;;;13.50;92.30;;;;;;7384932;19;19998;-74
2023/04/24 08:06:36;;;;;;;16.48;9.43;;;13.20;92.50;;;;;;7403005;19;20346;-73
2023/04/24 08:09:05;;;;;;;25.80;10.10;;;13.20;92.60;;;;;;7383988;19;20003;-73
2023/04/24 08:11:34;;;;;;;27.80;9.95;;;13.50;92.20;;;;;;7384302;19;20043;-74
2023/04/24 08:14:02;;;;;;;24.77;10.13;;;13.40;92.20;;;;;;7384485;19;20013;-75
2023/04/24 08:16:35;;;;;;;20.80;9.57;;;13.40;92.50;;;;;;7384120;19;20310;-74
2023/04/24 08:19:04;;;;;;;21.17;10.00;;;13.60;92.50;;;;;;7388605;19;20011;-74
2023/04/24 08:21:33;;;;;;;26.70;10.07;;;13.70;92.10;;;;;;7405304;19;20014;-74
2023/04/24 08:24:04;;;;;;;23.25;9.85;;;13.90;92.00;;;;;;7386170;19;20009;-75
2023/04/24 08:26:34;;;;;;;16.10;9.02;;;13.80;91.90;;;;;;7386474;19;20003;-74
2023/04/24 08:29:03;;;;;;;20.80;9.18;;;14.10;92.00;;;;;;7382664;19;20166;-75
2023/04/24 08:31:36;;;;;;;19.58;9.70;;;13.70;91.40;;;;;;7384541;19;20006;-74
2023/04/24 08:34:06;;;;;;;24.40;9.57;;;13.60;92.00;;;;;;7404472;19;20003;-74
2023/04/24 08:36:35;;;;;;;16.08;8.88;;;13.70;92.00;;;;;;7383591;19;20010;-75
2023/04/24 08:39:03;;;;;;;23.52;10.52;;;13.80;91.90;;;;;;7382810;19;20015;-75
2023/04/24 08:41:33;;;;;;;19.35;9.80;;;13.80;91.80;;;;;;7384124;19;20007;-74
2023/04/24 08:44:02;;;;;;;24.80;9.43;;;13.90;91.40;;;;;;7382803;19;20011;-75
2023/04/24 08:46:34;;;;;;;16.75;8.70;;;13.80;91.60;;;;;;7385075;19;20496;-75
2023/04/24 08:49:03;;;;;;;21.60;9.88;;;13.70;91.60;;;;;;7401468;19;20002;-74
2023/04/24 08:51:33;;;;;;;19.75;9.95;;;14.00;91.60;;;;;;7382825;19;20019;-73
2023/04/24 08:54:03;;;;;;;15.25;9.05;;;13.90;91.20;;;;;;7382741;19;20019;-75
2023/04/24 08:56:37;;;;;;;25.95;10.30;;;14.10;91.70;;;;;;7382225;19;20255;-75
2023/04/24 08:59:07;;;;;;;20.95;9.38;;;14.30;91.70;;;;;;7381809;19;20274;-74
2023/04/24 09:01:40;;;;;;;20.17;9.40;;;14.40;91.20;;;;;;7383288;19;20406;-75
2023/04/24 09:04:12;;;;;;;19.35;9.27;;;14.40;91.10;;;;;;7380718;19;20003;-73
2023/04/24 09:06:41;;;;;;;20.17;9.43;;;14.40;91.10;;;;;;7405146;19;20010;-75
2023/04/24 09:09:13;;;;;;;25.33;9.35;;;14.40;90.70;;;;;;7381635;19;20038;-73
2023/04/24 09:11:42;;;;;;;24.30;9.80;;;14.60;91.00;;;;;;7381642;19;19999;-73
2023/04/24 09:14:13;;;;;;;17.35;8.85;;;14.70;90.80;;;;;;7381360;19;20003;-73
2023/04/24 09:16:45;;;;;;;25.70;9.85;;;14.80;90.60;;;;;;7382189;19;20009;-73
2023/04/24 09:19:13;;;;;;;17.27;8.95;;;14.70;90.30;;;;;;7379997;19;20011;-74
2023/04/24 09:21:43;;;;;;;26.23;9.57;;;14.80;90.40;;;;;;7400896;19;20028;-74
2023/04/24 09:24:22;;;;;;;17.10;9.73;;;14.80;90.20;;;;;;7381154;19;20078;-73
2023/04/24 09:26:52;;;;;;;24.85;8.90;;;14.90;90.10;;;;;;7383124;19;20009;-73
2023/04/24 09:29:21;;;;;;;16.75;8.52;;;14.80;89.90;;;;;;7384141;19;20098;-74
2023/04/24 09:31:53;;;;;;;23.15;9.32;;;15.00;88.50;;;;;;7382934;19;20020;-73
2023/04/24 09:34:24;;;;;;;;;;;15.00;88.30;;;;;;7401791;19;20020;-73
2023/04/24 09:36:53;;;;;;;18.00;9.27;;;14.90;89.30;;;;;;7381631;19;19928;-73
2023/04/24 09:39:22;;;;;;;22.23;9.07;;;14.80;89.10;;;;;;7378895;19;20436;-74
2023/04/24 09:41:53;;;;;;;18.30;9.20;;;14.80;89.90;;;;;;7381232;19;20009;-74
2023/04/24 09:44:23;;;;;;;17.67;9.32;;;15.00;89.70;;;;;;7381858;19;20017;-74
2023/04/24 09:46:56;;;;;;;19.25;9.02;;;15.00;88.60;;;;;;7381392;19;20011;-73
2023/04/24 09:49:27;;;;;;;17.73;8.13;;;15.30;88.50;;;;;;7381191;19;20364;-75
2023/04/24 09:52:05;;;;;;;14.48;8.60;;;15.30;88.20;;;;;;7402879;19;20013;-74
2023/04/24 09:54:36;;;;;;;20.10;9.15;;;15.40;86.70;;;;;;7380710;19;20006;-74
2023/04/24 09:57:05;;;;;;;18.53;9.00;;;15.40;87.10;;;;;;7380660;19;20019;-74
2023/04/24 09:59:34;;;;;;;21.67;8.98;;;15.40;86.90;;;;;;7379292;19;20006;-74
2023/04/24 10:02:19;;;;;;;17.00;9.07;;;15.30;86.60;;;;;;7380708;19;20007;-74
2023/04/24 10:04:59;;;;;;;20.77;9.60;;;15.30;86.40;;;;;;7380324;19;20003;-75
2023/04/24 10:07:28;;;;;;;21.13;8.85;;;15.30;86.00;;;;;;7380277;19;20020;-73
2023/04/24 10:10:00;;;;;;;20.02;8.43;;;15.30;86.40;;;;;;7401599;19;20027;-75
2023/04/24 10:12:30;;;;;;;15.90;8.48;;;15.40;86.10;;;;;;7381715;19;20337;-73
2023/04/24 10:15:01;;;;;;;20.40;8.40;;;15.30;86.30;;;;;;7380969;19;20019;-72
2023/04/24 10:17:33;;;;;;;14.55;7.60;;;15.40;86.60;;;;;;7381384;19;19999;-72
2023/04/24 10:20:03;;;;;;;;;;;15.50;86.80;;;;;;7381086;19;20389;-72
2023/04/24 10:22:32;;;;;;;13.00;6.97;;;15.60;86.60;;;;;;7379139;19;20160;-72
2023/04/24 10:25:01;;;;;;;15.00;7.68;;;15.70;85.20;;;;;;7399861;19;20003;-72
2023/04/24 10:27:32;;;;;;;14.18;7.10;;;15.40;85.00;;;;;;7379548;19;20058;-72
2023/04/24 10:30:02;;;;;;;14.18;6.72;;;15.40;85.00;;;;;;7379258;19;20385;-72
2023/04/24 10:32:33;;;;;;;13.30;7.40;;;15.30;85.80;;;;;;7380064;19;20118;-74
2023/04/24 10:35:02;;;;;;;11.10;6.80;;;15.40;87.20;;;;;;7381296;19;20006;-71
2023/04/24 10:37:37;;;;;;;14.85;7.38;;;15.50;86.90;;;;;;7378949;19;20090;-71
2023/04/24 10:40:08;;;;;;;12.48;6.30;;;15.20;87.60;;;;;;7400798;19;20282;-70
2023/04/24 10:42:37;;;;;;;13.93;6.53;;;15.30;88.00;;;;;;7378927;19;20217;-71
2023/04/24 10:45:08;;;;;;;16.55;7.38;;;15.60;88.80;;;;;;7378511;19;20007;-71
2023/04/24 10:47:45;;;;;;;13.10;7.63;;;15.60;87.20;;;;;;7378989;19;20078;-72
2023/04/24 10:50:14;;;;;;;16.15;7.75;;;15.50;86.90;;;;;;7379196;19;20235;-74
2023/04/24 10:52:51;;;;;;;15.43;7.15;;;15.50;87.00;;;;;;7378985;19;20003;-76
2023/04/24 10:55:39;;;;;;;15.88;6.95;;;15.50;86.80;;;;;;7377700;19;20023;-72
2023/04/24 10:58:08;;;;;;;11.68;6.22;;;15.80;86.10;;;;;;7394264;19;20031;-72
2023/04/24 11:00:39;;;;;;;9.55;5.93;;;15.70;84.50;;;;;;7397845;19;20011;-73
2023/04/24 11:03:25;;;;;;;15.10;7.00;;;15.90;85.00;;;;;;7378348;19;20019;-73
2023/04/24 11:06:05;;;;;;;13.05;6.85;;;16.00;83.50;;;;;;7378120;19;20007;-74
2023/04/24 11:08:38;;;;;;;15.38;7.80;;;16.00;84.10;;;;;;7378154;19;20003;-74
2023/04/24 11:11:12;;;;;;;10.88;6.53;;;16.00;83.80;;;;;;7378476;19;20384;-74
2023/04/24 11:14:11;;;;;;;12.13;6.95;;;15.90;83.30;;;;;;7384060;19;20009;-73
2023/04/24 11:16:47;;;;;;;14.98;6.80;;;15.80;83.40;;;;;;7384293;19;20093;-72
2023/04/24 11:19:29;;;;;;;11.48;6.50;;;15.50;84.00;;;;;;7382764;19;20245;-71
2023/04/24 11:22:01;;;;;;;16.00;7.63;;;15.50;84.20;;;;;;7405767;19;20015;-71
2023/04/24 11:24:34;;;;;;;10.38;6.18;;;15.60;84.60;;;;;;7385241;19;20067;-72
2023/04/24 11:27:09;;;;;;;17.20;6.35;;;15.80;82.20;;;;;;7385400;19;20277;-72
2023/04/24 11:29:49;;;;;;;10.25;6.20;;;16.00;83.20;;;;;;7385717;19;20002;-72
2023/04/24 11:32:26;;;;;;;8.80;5.57;;;16.10;82.00;;;;;;7385963;19;20006;-72
2023/04/24 11:35:00;;;;;;;10.52;5.05;;;16.10;80.90;;;;;;7385452;19;20063;-72
2023/04/24 11:37:30;;;;;;;8.10;4.78;;;16.20;79.10;;;;;;7385828;19;20023;-72
2023/04/24 11:40:00;;;;;;;13.05;4.82;;;16.00;78.60;;;;;;7404259;19;20400;-72
2023/04/24 11:42:30;;;;;;;11.98;5.13;;;16.20;79.70;;;;;;7384610;19;20078;-72
2023/04/24 11:44:59;;;;;;;11.68;5.05;;;16.20;80.50;;;;;;7384858;19;20010;-72
2023/04/24 11:47:33;;;;;;;8.35;4.72;;;16.10;81.00;;;;;;7386436;19;20371;-71
2023/04/24 11:50:05;;;;;;;8.63;4.32;;;16.20;80.70;;;;;;7383864;19;20038;-74
2023/04/24 11:52:36;;;;;;;9.05;4.43;;;16.00;81.30;;;;;;7383217;19;20027;-71
2023/04/24 11:55:05;;;;;;;11.80;4.60;;;16.10;81.20;;;;;;7403799;19;20048;-71
2023/04/24 11:57:36;;;;;;;10.75;4.70;;;15.80;80.50;;;;;;7384134;19;20713;-71
2023/04/24 12:00:07;;;;;;;9.25;4.20;;;15.80;80.60;;;;;;7383843;19;20009;-71
2023/04/24 12:02:36;;;;;;;10.73;4.05;;;15.70;79.30;;;;;;7383418;19;20026;-71
2023/04/24 12:05:08;;;;;;;10.27;3.85;;;15.90;80.10;;;;;;7384547;19;20322;-72
2023/04/24 12:07:45;;;;;;;9.43;3.95;;;15.90;79.00;;;;;;7382311;19;20006;-72
2023/04/24 12:10:14;;;;;;;8.80;3.65;;;16.00;80.10;;;;;;7383685;19;20013;-71
2023/04/24 12:12:50;;;;;;;7.65;3.92;;;16.10;80.30;;;;;;7403310;19;20030;-72
2023/04/24 12:15:19;;;;;;;7.10;3.63;;;16.20;79.50;;;;;;7383473;19;20007;-72
2023/04/24 12:17:48;;;;;;;8.23;3.35;;;16.30;80.40;;;;;;7383790;19;20114;-72
2023/04/24 12:20:20;;;;;;;8.30;3.42;;;16.50;80.70;;;;;;7382718;19;20007;-72
2023/04/24 12:22:49;;;;;;;;;;;16.50;77.90;;;;;;7382177;19;20003;-72
2023/04/24 12:25:19;;;;;;;10.10;4.05;;;16.40;79.70;;;;;;7381584;19;19915;-71
2023/04/24 12:27:48;;;;;;;9.30;4.10;;;16.00;80.10;;;;;;7409647;19;20009;-72
2023/04/24 12:30:19;;;;;;;9.18;3.80;;;15.90;80.40;;;;;;7383236;19;20006;-74
2023/04/24 12:32:51;;;;;;;16.13;3.60;;;15.90;80.30;;;;;;7383468;19;20014;-75
2023/04/24 12:35:28;;;;;;;6.60;3.97;;;15.80;80.80;;;;;;7384063;19;20006;-75
2023/04/24 12:37:57;;;;;;;6.57;3.75;;;15.90;79.90;;;;;;7383969;19;20003;-73
2023/04/24 12:40:30;;;;;;;6.95;3.60;;;16.00;80.00;;;;;;7381005;19;20035;-73
2023/04/24 12:42:58;;;;;;;10.77;3.50;;;16.00;79.70;;;;;;7404913;19;20288;-76
2023/04/24 12:45:28;;;;;;;6.75;3.42;;;16.10;79.90;;;;;;7382473;19;20329;-75
2023/04/24 12:47:57;;;;;;;5.93;3.08;;;16.20;78.20;;;;;;7383296;19;20077;-74
2023/04/24 12:50:39;;;;;;;4.78;3.05;;;16.20;76.50;;;;;;7383697;19;20074;-72
2023/04/24 12:53:13;;;;;;;5.43;2.83;;;16.20;75.20;;;;;;7384136;19;20016;-73
2023/04/24 12:55:41;;;;;;;6.50;3.10;;;16.40;76.00;;;;;;7383831;19;20006;-74